Airfield :
LOGIN :

Register | Disclaimer

   EN    FR    IT 

 










Legend :    VFR   Marginal VFR   IFR   Intensive IFR   Very Intensive IFR
Visi :
Ceiling :
>= 8 km
>= 3000ft
5 to 8 km
1000 to 3000 ft
1500m to 5 km
500 to 1000 ft
800 to 1500m
200 to 500 ft
< 800m
< 200 ft
Symbols :   Thunderstorms  Fog  Heavy snow  Heavy precipitations  Wind > 20 kt
SIGMETs :     Misc.  Thunderstorms  Icing  Turbulence  Mountain Waves  Volcanic Ashes






- Airport Elevation : 14 ft
- IATA code : BRE


EDDW - Bremen Neuenland

CURRENT METAR :
  • 231450Z AUTO 23008KT 190V260 CAVOK 09/M02 Q1015 NOSIG

EXPIRED METARs :
  • 231420Z AUTO 24008KT 210V270 CAVOK 09/M01 Q1016 NOSIG
  • 231350Z AUTO 27007KT 230V320 CAVOK 09/M03 Q1016 NOSIG
  • 231320Z AUTO 28007KT 240V310 CAVOK 09/M02 Q1017 NOSIG
  • 231250Z AUTO 26008KT 210V310 CAVOK 09/M02 Q1017 NOSIG
  • 231220Z AUTO 26008KT 240V300 9999 FEW040 09/M02 Q1018 NOSIG
  • 231150Z AUTO 26007KT 210V280 CAVOK 08/M03 Q1018 NOSIG
  • 231120Z AUTO 20006KT 170V240 CAVOK 08/M03 Q1019 NOSIG
  • 231050Z AUTO VRB05KT 9999 FEW048 09/M01 Q1019 NOSIG
  • 231020Z AUTO VRB04KT 9999 BKN049 08/M02 Q1019 NOSIG
  • 230950Z AUTO 27004KT 180V340 9999 BKN049 08/M03 Q1020 NOSIG

TAF TAF EDDW
Valid from the 23 at 12:00 until the 24 at 12:00 UTC


231100Z 2312/2412 24008KT CAVOK
PROB30
TEMPO 2318/2322 RA
PROB40
TEMPO 2403/2408 SHRA BKN007 BKN015CB
TEMPO 2410/2412 4000 SHRA SCT011 BKN015CB



MET'MAP, your aeronautical weather chart ! - Copyright ORBIFLY December 2007 - Disclaimer

ORBIFLY MET'MAP TEAM :

Programming & Development : Alexandra Zaïnal
Original concept : Baudouin d'Aumeries
Technical & hardware support : Manuel Goepfert
Assistance : Marc-Olivier Méhu




SOURCES & CREDITS :

   NOAA